^^
Meteo Knjazevac Station Historical Data
Daily Summary for July 21, 2021 Units:  English    Metric   Both
Daily Weekly Monthly Yearly Custom
  High: Low: Average:
Temperature: 65.7 °F 59.7 °F 62.6 °F
Dew Point: 63.9 °F 59.2 °F 61.5 °F
Humidity: 99% 94% 96%
Wind Speed: 3mph 0mph 1mph
Wind Gust: 6mph - -
Wind- - WSW
Pressure: 29.99 in 29.97 in -
Precipitation: 0.00 in    
Historical Graphs
 
 
Tabular Data for July 21, 2021
Time Temperature Dew Point Pressure Wind Wind Speed Wind Gust Humidity Rainfall Rate (Hourly) solar Conditions
00:00 65.7 °F 63.9 °F 29.99 in Calm   3 mph 94% 0.00 in 0 W/m2
00:10 65.4 °F 63.6 °F 29.99 in West 1 mph 2 mph 94% 0.00 in 0 W/m2
00:20 65.1 °F 63.3 °F 29.99 in WSW 1 mph 2 mph 94% 0.00 in 0 W/m2
00:30 64.9 °F 63.2 °F 29.98 in Calm   2 mph 94% 0.00 in 0 W/m2
00:40 64.8 °F 63 °F 29.99 in North 1 mph 2 mph 94% 0.00 in 0 W/m2
00:50 64.5 °F 62.7 °F 29.99 in Calm   3 mph 94% 0.00 in 0 W/m2
01:00 64.3 °F 62.6 °F 29.98 in NE 1 mph 3 mph 94% 0.00 in 0 W/m2
01:10 63.7 °F 61.9 °F 29.98 in WSW 1 mph 3 mph 94% 0.00 in 0 W/m2
01:20 63.3 °F 61.9 °F 29.98 in SW 3 mph 4 mph 95% 0.00 in 0 W/m2
01:30 63 °F 61.5 °F 29.98 in West 2 mph 3 mph 95% 0.00 in 0 W/m2
01:40 62.8 °F 61.6 °F 29.97 in NNW 1 mph 6 mph 96% 0.00 in 0 W/m2
01:50 62.7 °F 61.5 °F 29.97 in West 1 mph 3 mph 96% 0.00 in 0 W/m2
02:00 62.4 °F 61.3 °F 29.97 in Calm   2 mph 96% 0.00 in 0 W/m2
02:10 62.2 °F 61.1 °F 29.97 in WNW 1 mph 3 mph 96% 0.00 in 0 W/m2
02:20 61.7 °F 60.5 °F 29.98 in WSW 2 mph 5 mph 96% 0.00 in 0 W/m2
02:30 61.3 °F 60.8 °F 29.97 in West 2 mph 3 mph 98% 0.00 in 0 W/m2
02:40 61.3 °F 60.8 °F 29.97 in WSW 1 mph 3 mph 98% 0.00 in 0 W/m2
02:50 61 °F 60.4 °F 29.97 in Calm   2 mph 98% 0.00 in 0 W/m2
03:00 60.8 °F 60.2 °F 29.97 in Calm   2 mph 98% 0.00 in 0 W/m2
03:10 60.6 °F 60.1 °F 29.97 in WNW 2 mph 3 mph 98% 0.00 in 0 W/m2
03:20 60.6 °F 60.3 °F 29.97 in NNW 1 mph 3 mph 99% 0.00 in 0 W/m2
03:30 60.4 °F 59.9 °F 29.97 in NW 1 mph 3 mph 98% 0.00 in 0 W/m2
03:40 60.2 °F 59.6 °F 29.97 in WNW 1 mph 3 mph 98% 0.00 in 0 W/m2
03:50 59.7 °F 59.2 °F 29.97 in SW 2 mph 3 mph 98% 0.00 in 0 W/m2
Knjazevac, Serbia
Compliments of Weather Underground - 2 mb